createdAt,value
2023-05-23T00:00:38.254Z,16.09
2023-05-23T00:03:08.980Z,16.13
2023-05-23T00:05:39.859Z,16.14
2023-05-23T00:08:10.810Z,16.13
2023-05-23T00:10:43.997Z,16.18
2023-05-23T00:13:15.344Z,16.16
2023-05-23T00:15:46.887Z,16.10
2023-05-23T00:18:17.866Z,16.10
2023-05-23T00:20:48.936Z,16.18
2023-05-23T00:23:22.739Z,16.20
2023-05-23T00:25:56.180Z,16.20
2023-05-23T00:28:26.838Z,16.18
2023-05-23T00:30:57.451Z,16.22
2023-05-23T00:33:29.977Z,16.31
2023-05-23T00:36:00.847Z,16.43
2023-05-23T00:38:31.590Z,16.48
2023-05-23T00:41:05.867Z,16.53
2023-05-23T00:43:37.031Z,16.59
2023-05-23T00:46:08.763Z,16.64
2023-05-23T00:48:40.001Z,16.56
2023-05-23T00:51:10.990Z,16.51
2023-05-23T00:53:41.871Z,16.42
2023-05-23T00:56:15.471Z,16.38
2023-05-23T00:58:46.107Z,16.39
2023-05-23T01:01:18.052Z,16.26
2023-05-23T01:03:48.904Z,16.20
2023-05-23T01:06:20.482Z,16.17
2023-05-23T01:08:51.117Z,16.06
2023-05-23T01:11:30.872Z,16.05
2023-05-23T01:14:06.305Z,16.07
2023-05-23T01:16:48.908Z,15.99
2023-05-23T01:19:52.112Z,15.95
2023-05-23T01:22:36.200Z,15.86
2023-05-23T01:25:14.842Z,15.85
2023-05-23T01:27:54.255Z,15.79
2023-05-23T01:30:26.356Z,15.77
2023-05-23T01:32:59.561Z,15.76
2023-05-23T01:35:31.256Z,15.75
2023-05-23T01:38:01.976Z,15.72
2023-05-23T01:40:32.943Z,15.70
2023-05-23T01:43:06.475Z,15.68
2023-05-23T01:45:38.114Z,15.69
2023-05-23T01:48:10.108Z,15.70
2023-05-23T01:50:42.147Z,15.73
2023-05-23T01:53:14.987Z,15.71
2023-05-23T01:55:46.598Z,15.62
2023-05-23T01:58:20.614Z,15.62
2023-05-23T02:00:51.330Z,15.63
2023-05-23T02:03:22.308Z,15.64
2023-05-23T02:05:53.674Z,15.64
2023-05-23T02:08:24.287Z,15.69
2023-05-23T02:10:54.947Z,15.72
2023-05-23T02:13:28.316Z,15.63
2023-05-23T02:15:58.911Z,15.62
2023-05-23T02:18:30.074Z,15.59
2023-05-23T02:21:00.680Z,15.56
2023-05-23T02:23:31.414Z,15.45
2023-05-23T02:26:02.122Z,15.35
2023-05-23T02:28:35.279Z,15.30
2023-05-23T02:31:06.306Z,15.25
2023-05-23T02:33:37.006Z,15.20
2023-05-23T02:36:08.319Z,15.21
2023-05-23T02:38:39.013Z,15.20
2023-05-23T02:41:09.637Z,15.13
2023-05-23T02:43:44.248Z,15.05
2023-05-23T02:46:16.461Z,15.01
2023-05-23T02:48:47.457Z,14.98
2023-05-23T02:51:18.021Z,15.08
2023-05-23T02:53:48.605Z,15.17
2023-05-23T02:56:20.430Z,15.14
2023-05-23T02:58:53.608Z,15.22
2023-05-23T03:01:24.454Z,15.31
2023-05-23T03:03:55.096Z,15.47
2023-05-23T03:06:27.741Z,15.64
2023-05-23T03:08:58.348Z,15.70
2023-05-23T03:11:30.003Z,15.81
2023-05-23T03:14:03.173Z,15.92
2023-05-23T03:16:33.796Z,15.92
2023-05-23T03:19:04.882Z,15.99
2023-05-23T03:21:36.373Z,15.99
2023-05-23T03:24:07.827Z,15.92
2023-05-23T03:26:38.351Z,15.97
2023-05-23T03:29:11.522Z,15.95
2023-05-23T03:31:42.135Z,15.89
2023-05-23T03:34:13.189Z,15.90
2023-05-23T03:36:43.874Z,15.91
2023-05-23T03:39:14.523Z,16.00
2023-05-23T03:41:45.088Z,16.10
2023-05-23T03:44:18.400Z,16.16
2023-05-23T03:46:49.093Z,16.17
2023-05-23T03:49:21.159Z,16.23
2023-05-23T03:51:51.758Z,16.43
2023-05-23T03:54:22.368Z,16.53
2023-05-23T03:56:53.022Z,16.66
2023-05-23T03:59:26.236Z,16.56
2023-05-23T04:01:58.992Z,16.70
2023-05-23T04:04:29.724Z,16.74
2023-05-23T04:07:01.801Z,16.77
2023-05-23T04:09:32.818Z,16.83
2023-05-23T04:12:03.978Z,16.85
2023-05-23T04:14:37.867Z,16.90
2023-05-23T04:17:09.314Z,16.85
2023-05-23T04:19:40.650Z,16.89
2023-05-23T04:22:11.301Z,16.81
2023-05-23T04:24:41.911Z,16.93
2023-05-23T04:27:13.891Z,16.86
2023-05-23T04:29:48.369Z,16.88
2023-05-23T04:32:23.243Z,16.91
2023-05-23T04:34:54.113Z,16.92
2023-05-23T04:37:26.529Z,17.01
2023-05-23T04:39:59.470Z,17.09
2023-05-23T04:42:46.391Z,17.07
2023-05-23T04:45:41.835Z,17.18
2023-05-23T04:48:30.167Z,17.29
2023-05-23T04:51:02.418Z,17.35
2023-05-23T04:53:33.879Z,17.25
2023-05-23T04:56:04.812Z,17.29
2023-05-23T04:58:35.811Z,17.39
2023-05-23T05:01:11.958Z,17.31
2023-05-23T05:03:42.712Z,17.31
2023-05-23T05:06:13.360Z,17.32
2023-05-23T05:08:43.983Z,17.10
2023-05-23T05:11:15.323Z,17.31
2023-05-23T05:13:45.985Z,17.35
2023-05-23T05:16:20.130Z,17.41
2023-05-23T05:18:51.685Z,17.58
2023-05-23T05:21:23.577Z,17.80
2023-05-23T05:23:54.655Z,18.01
2023-05-23T05:26:25.572Z,18.06
2023-05-23T05:28:57.122Z,18.26
2023-05-23T05:31:30.524Z,18.33
2023-05-23T05:34:01.292Z,18.39
2023-05-23T05:36:32.626Z,18.28
2023-05-23T05:39:03.436Z,18.47
2023-05-23T05:41:33.988Z,18.55
2023-05-23T05:44:04.525Z,18.39
2023-05-23T05:46:37.905Z,18.25
2023-05-23T05:49:10.196Z,18.21
2023-05-23T05:51:41.102Z,18.17
2023-05-23T05:54:11.975Z,18.13
2023-05-23T05:56:42.640Z,17.96
2023-05-23T05:59:14.370Z,18.08
2023-05-23T06:01:47.914Z,18.26
2023-05-23T06:04:18.793Z,18.57
2023-05-23T06:06:49.719Z,18.90
2023-05-23T06:09:20.258Z,19.40
2023-05-23T06:11:51.157Z,19.64
2023-05-23T06:14:22.458Z,19.62
2023-05-23T06:16:56.906Z,20.18
2023-05-23T06:19:27.598Z,20.18
2023-05-23T06:21:58.889Z,20.40
2023-05-23T06:24:29.575Z,19.79
2023-05-23T06:27:00.123Z,19.28
2023-05-23T06:29:31.416Z,19.41
2023-05-23T06:32:04.691Z,19.93
2023-05-23T06:34:35.554Z,19.42
2023-05-23T06:37:06.112Z,18.95
2023-05-23T06:39:36.659Z,18.99
2023-05-23T06:42:07.618Z,19.15
2023-05-23T06:44:53.560Z,18.78
2023-05-23T06:47:26.940Z,18.69
2023-05-23T06:49:57.546Z,18.79
2023-05-23T06:52:28.856Z,19.33
2023-05-23T06:55:00.449Z,19.28
2023-05-23T06:57:31.192Z,18.97
2023-05-23T07:00:01.809Z,18.84
2023-05-23T07:02:35.135Z,19.01
2023-05-23T07:05:09.609Z,18.91
2023-05-23T07:07:51.013Z,18.98
2023-05-23T07:10:21.923Z,18.78
2023-05-23T07:12:54.160Z,18.71
2023-05-23T07:15:26.180Z,18.50
2023-05-23T07:18:11.918Z,18.64
2023-05-23T07:20:42.690Z,18.44
2023-05-23T07:23:20.164Z,18.19
2023-05-23T07:26:01.785Z,17.99
2023-05-23T07:28:40.609Z,17.81
2023-05-23T07:31:12.228Z,17.78
2023-05-23T07:33:45.493Z,17.75
2023-05-23T07:36:22.575Z,17.72
2023-05-23T07:38:54.436Z,17.54
2023-05-23T07:41:25.226Z,17.59
2023-05-23T07:43:56.098Z,17.60
2023-05-23T07:46:26.763Z,17.40
2023-05-23T07:48:59.911Z,17.14
2023-05-23T07:51:31.067Z,17.42
2023-05-23T07:54:01.651Z,17.86
2023-05-23T07:56:32.601Z,17.65
2023-05-23T07:59:03.129Z,17.61
2023-05-23T08:01:33.980Z,17.52
2023-05-23T08:04:12.703Z,17.69
2023-05-23T08:07:04.190Z,17.88
2023-05-23T08:09:49.807Z,17.80
2023-05-23T08:12:23.098Z,17.78
2023-05-23T08:15:02.251Z,18.05
2023-05-23T08:17:36.893Z,18.20
2023-05-23T08:20:12.372Z,18.54
2023-05-23T08:22:43.190Z,19.20
2023-05-23T08:25:14.285Z,19.06
2023-05-23T08:27:44.840Z,19.30
2023-05-23T08:30:33.905Z,18.98
2023-05-23T08:33:05.082Z,18.97
2023-05-23T08:35:39.197Z,18.39
2023-05-23T08:38:13.828Z,18.22
2023-05-23T08:40:55.477Z,18.39
2023-05-23T08:43:27.669Z,18.47
2023-05-23T08:45:58.741Z,18.59
2023-05-23T08:48:32.573Z,19.03
2023-05-23T08:51:07.088Z,19.22
2023-05-23T08:53:41.352Z,19.07
2023-05-23T08:56:12.717Z,18.62
2023-05-23T08:58:48.753Z,18.72
2023-05-23T09:01:23.254Z,18.87
2023-05-23T09:04:00.494Z,19.41
2023-05-23T09:07:10.778Z,19.05
2023-05-23T09:09:41.893Z,19.02
2023-05-23T09:12:15.556Z,19.05
2023-05-23T09:14:49.339Z,19.00
2023-05-23T09:17:22.700Z,18.84
2023-05-23T09:19:55.554Z,18.49
2023-05-23T09:22:52.467Z,18.91
2023-05-23T09:25:23.322Z,19.43
2023-05-23T09:28:00.236Z,19.38
2023-05-23T09:30:31.786Z,19.11
2023-05-23T09:33:05.896Z,19.56
2023-05-23T09:35:37.726Z,19.52
2023-05-23T09:38:12.892Z,19.83
2023-05-23T09:40:49.344Z,20.09
2023-05-23T09:43:21.396Z,19.96
2023-05-23T09:45:57.706Z,20.15
2023-05-23T09:48:33.914Z,19.30
2023-05-23T09:51:08.744Z,19.27
2023-05-23T09:53:42.298Z,19.58
2023-05-23T09:56:15.588Z,19.94
2023-05-23T09:58:48.072Z,20.26
2023-05-23T10:01:19.830Z,20.52
2023-05-23T10:03:57.250Z,20.47
2023-05-23T10:06:34.822Z,21.59
2023-05-23T10:09:15.534Z,21.09
2023-05-23T10:12:22.208Z,21.08
2023-05-23T10:15:00.144Z,21.10
2023-05-23T10:17:39.495Z,20.95
2023-05-23T10:20:13.987Z,20.54
2023-05-23T10:22:45.993Z,20.69
2023-05-23T10:25:19.627Z,21.28
2023-05-23T10:27:54.273Z,21.47
2023-05-23T10:30:25.255Z,21.97
2023-05-23T10:32:57.086Z,21.48
2023-05-23T10:35:36.200Z,20.78
2023-05-23T10:38:15.937Z,20.67
2023-05-23T10:40:58.118Z,20.66
2023-05-23T10:43:34.041Z,20.75
2023-05-23T10:46:04.639Z,20.72
2023-05-23T10:48:43.786Z,20.82
2023-05-23T10:51:15.616Z,19.99
2023-05-23T10:53:47.939Z,20.00
2023-05-23T10:56:26.758Z,20.27
2023-05-23T10:59:00.310Z,20.77
2023-05-23T11:01:31.309Z,21.24
2023-05-23T11:04:08.159Z,21.13
2023-05-23T11:06:43.017Z,20.72
2023-05-23T11:09:16.888Z,20.76
2023-05-23T11:12:05.036Z,20.93
2023-05-23T11:14:38.568Z,21.32
2023-05-23T11:17:19.833Z,21.55
2023-05-23T11:20:13.484Z,21.61
2023-05-23T11:22:56.041Z,21.75
2023-05-23T11:25:44.763Z,21.49
2023-05-23T11:28:18.059Z,20.86
2023-05-23T11:30:51.261Z,20.57
2023-05-23T11:33:22.381Z,20.63
2023-05-23T11:35:54.167Z,21.22
2023-05-23T11:38:25.040Z,22.32
2023-05-23T11:40:55.624Z,23.33
2023-05-23T11:43:28.921Z,23.82
2023-05-23T11:45:59.484Z,23.64
2023-05-23T11:48:32.604Z,23.59
2023-05-23T11:51:03.232Z,22.86
2023-05-23T11:53:34.161Z,23.00
2023-05-23T11:56:06.316Z,22.97
2023-05-23T11:58:42.841Z,23.05
2023-05-23T12:01:14.773Z,22.96
2023-05-23T12:03:53.490Z,22.65
2023-05-23T12:06:25.182Z,22.93
2023-05-23T12:08:56.315Z,23.64
2023-05-23T12:11:26.979Z,22.28
2023-05-23T12:14:01.261Z,22.12
2023-05-23T12:16:32.933Z,22.78
2023-05-23T12:19:05.035Z,22.66
2023-05-23T12:21:45.935Z,22.41
2023-05-23T12:24:20.467Z,22.39
2023-05-23T12:26:52.654Z,22.65
2023-05-23T12:29:34.740Z,22.67
2023-05-23T12:32:07.318Z,22.08
2023-05-23T12:34:37.864Z,22.49
2023-05-23T12:39:42.738Z,24.17
2023-05-23T12:42:14.021Z,26.05
2023-05-23T12:44:48.859Z,24.51
2023-05-23T12:47:19.698Z,25.08
2023-05-23T12:49:50.305Z,24.50
2023-05-23T12:52:20.808Z,24.30
2023-05-23T12:54:51.538Z,24.60
2023-05-23T12:57:22.884Z,25.72
2023-05-23T12:59:55.986Z,26.54
2023-05-23T13:02:26.753Z,27.05
2023-05-23T13:04:57.399Z,25.52
2023-05-23T13:07:27.955Z,25.68
2023-05-23T13:09:58.577Z,24.83
2023-05-23T13:12:29.866Z,23.73
2023-05-23T13:15:03.167Z,23.37
2023-05-23T13:17:33.732Z,23.36
2023-05-23T13:20:05.378Z,24.72
2023-05-23T13:22:36.048Z,25.35
2023-05-23T13:25:07.545Z,25.79
2023-05-23T13:27:38.206Z,24.58
2023-05-23T13:30:12.790Z,25.11
2023-05-23T13:32:43.365Z,25.64
2023-05-23T13:35:14.061Z,26.59
2023-05-23T13:37:44.645Z,27.96
2023-05-23T13:40:20.679Z,27.64
2023-05-23T13:42:53.476Z,24.93
2023-05-23T13:45:26.817Z,24.12
2023-05-23T13:47:57.406Z,23.60
2023-05-23T13:50:28.371Z,23.40
2023-05-23T13:52:59.022Z,22.31
2023-05-23T13:55:29.719Z,21.38
2023-05-23T13:58:00.303Z,21.46
2023-05-23T14:00:33.489Z,20.96
2023-05-23T14:03:04.157Z,21.09
2023-05-23T14:05:34.786Z,21.11
2023-05-23T14:08:05.349Z,21.01
2023-05-23T14:10:36.166Z,21.11
2023-05-23T14:13:07.049Z,21.46
2023-05-23T14:15:42.690Z,21.64
2023-05-23T14:18:13.443Z,21.58
2023-05-23T14:20:43.994Z,21.54
2023-05-23T14:23:16.670Z,21.19
2023-05-23T14:25:47.173Z,21.67
2023-05-23T14:28:17.844Z,22.30
2023-05-23T14:30:51.219Z,23.06
2023-05-23T14:33:21.828Z,23.49
2023-05-23T14:35:53.096Z,23.91
2023-05-23T14:38:23.632Z,23.31
2023-05-23T14:40:54.801Z,22.74
2023-05-23T14:43:25.318Z,22.21
2023-05-23T14:45:58.589Z,22.36
2023-05-23T14:48:29.145Z,22.18
2023-05-23T14:51:01.801Z,22.62
2023-05-23T14:56:03.593Z,22.80
2023-05-23T14:58:34.183Z,22.11
2023-05-23T15:01:07.635Z,21.55
2023-05-23T15:03:38.532Z,21.75
2023-05-23T15:06:09.572Z,21.80
2023-05-23T15:08:40.431Z,21.71
2023-05-23T15:11:11.205Z,21.21
2023-05-23T15:13:41.742Z,20.74
2023-05-23T15:16:18.216Z,20.84
2023-05-23T15:18:51.466Z,21.01
2023-05-23T15:21:22.105Z,21.29
2023-05-23T15:23:52.662Z,21.26
2023-05-23T15:26:28.389Z,21.86
2023-05-23T15:28:59.299Z,22.24
2023-05-23T15:31:33.492Z,23.02
2023-05-23T15:34:04.616Z,23.98
2023-05-23T15:36:35.241Z,23.91
2023-05-23T15:39:06.355Z,23.80
2023-05-23T15:41:36.931Z,22.39
2023-05-23T15:44:07.803Z,22.22
2023-05-23T15:46:40.943Z,22.44
2023-05-23T15:49:24.508Z,22.13
2023-05-23T15:51:56.860Z,22.18
2023-05-23T15:54:27.393Z,21.98
2023-05-23T15:56:57.972Z,21.62
2023-05-23T15:59:28.577Z,22.03
2023-05-23T16:02:05.463Z,22.30
2023-05-23T16:04:36.231Z,23.66
2023-05-23T16:07:07.093Z,24.34
2023-05-23T16:09:37.623Z,24.40
2023-05-23T16:12:08.920Z,24.08
2023-05-23T16:14:39.502Z,24.54
2023-05-23T16:17:12.713Z,24.11
2023-05-23T16:19:43.432Z,24.38
2023-05-23T16:22:15.883Z,24.91
2023-05-23T16:24:46.514Z,25.52
2023-05-23T16:27:17.204Z,26.15
2023-05-23T16:29:54.271Z,25.68
2023-05-23T16:32:27.427Z,25.94
2023-05-23T16:34:58.285Z,26.10
2023-05-23T16:37:28.824Z,24.49
2023-05-23T16:39:59.366Z,24.63
2023-05-23T16:42:30.066Z,25.59
2023-05-23T16:45:00.714Z,25.45
2023-05-23T16:47:33.920Z,24.91
2023-05-23T16:50:05.129Z,24.07
2023-05-23T16:52:35.710Z,23.39
2023-05-23T16:55:07.188Z,23.55
2023-05-23T16:57:37.705Z,24.23
2023-05-23T17:00:09.334Z,23.32
2023-05-23T17:02:42.669Z,24.01
2023-05-23T17:05:13.357Z,23.11
2023-05-23T17:07:43.938Z,22.13
2023-05-23T17:10:14.972Z,21.18
2023-05-23T17:12:45.481Z,20.85
2023-05-23T17:15:15.999Z,21.67
2023-05-23T17:17:49.775Z,21.49
2023-05-23T17:20:24.144Z,22.29
2023-05-23T17:22:54.945Z,22.01
2023-05-23T17:25:25.678Z,22.18
2023-05-23T17:27:56.928Z,21.90
2023-05-23T17:30:28.486Z,21.90
2023-05-23T17:33:01.657Z,21.84
2023-05-23T17:35:32.577Z,22.03
2023-05-23T17:38:03.146Z,21.51
2023-05-23T17:40:33.850Z,20.55
2023-05-23T17:43:04.393Z,20.31
2023-05-23T17:45:34.961Z,19.67
2023-05-23T17:48:08.214Z,19.39
2023-05-23T17:50:38.752Z,19.29
2023-05-23T17:53:09.656Z,19.09
2023-05-23T17:55:40.207Z,18.91
2023-05-23T17:58:10.851Z,18.83
2023-05-23T18:00:41.683Z,18.52
2023-05-23T18:03:14.920Z,18.52
2023-05-23T18:05:45.671Z,18.20
2023-05-23T18:08:16.594Z,18.07
2023-05-23T18:10:47.913Z,17.87
2023-05-23T18:13:19.183Z,17.79
2023-05-23T18:15:49.808Z,17.70
2023-05-23T18:18:23.024Z,17.63
2023-05-23T18:20:53.698Z,17.58
2023-05-23T18:23:25.005Z,17.64
2023-05-23T18:25:55.503Z,17.44
2023-05-23T18:28:26.120Z,17.56
2023-05-23T18:30:56.683Z,17.45
2023-05-23T18:33:30.344Z,17.31
2023-05-23T18:36:01.421Z,17.17
2023-05-23T18:38:32.029Z,17.09
2023-05-23T18:41:02.661Z,17.07
2023-05-23T18:43:33.218Z,17.07
2023-05-23T18:46:03.859Z,17.02
2023-05-23T18:48:37.076Z,17.06
2023-05-23T18:51:08.628Z,16.95
2023-05-23T18:53:40.813Z,16.93
2023-05-23T18:56:12.879Z,16.92
2023-05-23T18:58:45.333Z,17.06
2023-05-23T19:01:17.272Z,17.00
2023-05-23T19:03:50.475Z,16.83
2023-05-23T19:06:21.264Z,16.79
2023-05-23T19:08:51.822Z,16.73
2023-05-23T19:11:22.750Z,16.57
2023-05-23T19:13:53.309Z,16.62
2023-05-23T19:16:24.214Z,16.54
2023-05-23T19:18:57.539Z,16.50
2023-05-23T19:21:28.492Z,16.47
2023-05-23T19:23:59.323Z,16.41
2023-05-23T19:26:30.123Z,16.27
2023-05-23T19:29:00.798Z,16.20
2023-05-23T19:31:31.860Z,16.29
2023-05-23T19:34:05.087Z,16.14
2023-05-23T19:36:36.689Z,16.16
2023-05-23T19:39:07.485Z,16.12
2023-05-23T19:41:38.160Z,16.14
2023-05-23T19:44:08.711Z,16.12
2023-05-23T19:46:39.280Z,16.13
2023-05-23T19:49:13.810Z,15.91
2023-05-23T19:51:44.392Z,15.89
2023-05-23T19:54:15.802Z,15.80
2023-05-23T19:56:46.378Z,15.77
2023-05-23T19:59:17.230Z,15.70
2023-05-23T20:01:47.834Z,15.70
2023-05-23T20:04:24.193Z,15.65
2023-05-23T20:06:56.161Z,15.62
2023-05-23T20:09:26.715Z,15.49
2023-05-23T20:11:57.282Z,15.48
2023-05-23T20:14:29.353Z,15.33
2023-05-23T20:17:00.075Z,15.32
2023-05-23T20:19:33.373Z,15.24
2023-05-23T20:22:04.199Z,15.21
2023-05-23T20:24:34.771Z,15.10
2023-05-23T20:27:05.314Z,15.02
2023-05-23T20:29:36.056Z,15.00
2023-05-23T20:32:06.946Z,14.93
2023-05-23T20:34:40.154Z,14.84
2023-05-23T20:37:13.856Z,14.86
2023-05-23T20:39:44.701Z,14.79
2023-05-23T20:42:15.356Z,14.74
2023-05-23T20:44:47.080Z,14.69
2023-05-23T20:47:18.457Z,14.65
2023-05-23T20:49:51.853Z,14.64
2023-05-23T20:52:23.081Z,14.64
2023-05-23T20:54:54.661Z,14.63
2023-05-23T20:57:25.294Z,14.56
2023-05-23T20:59:55.855Z,14.55
2023-05-23T21:02:26.943Z,14.51
2023-05-23T21:05:00.325Z,14.56
2023-05-23T21:07:30.921Z,14.44
2023-05-23T21:10:01.493Z,14.52
2023-05-23T21:12:32.144Z,14.48
2023-05-23T21:15:03.295Z,14.43
2023-05-23T21:17:33.953Z,14.32
2023-05-23T21:20:07.705Z,14.18
2023-05-23T21:22:38.289Z,14.14
2023-05-23T21:25:09.524Z,14.12
2023-05-23T21:27:40.225Z,14.03
2023-05-23T21:30:12.192Z,13.99
2023-05-23T21:32:43.669Z,13.91
2023-05-23T21:35:17.009Z,13.83
2023-05-23T21:37:47.546Z,13.91
2023-05-23T21:40:18.201Z,13.79
2023-05-23T21:42:48.770Z,13.70
2023-05-23T21:45:19.374Z,13.70
2023-05-23T21:47:49.996Z,13.64
2023-05-23T21:50:23.454Z,13.59
2023-05-23T21:52:54.322Z,13.59
2023-05-23T21:55:24.956Z,13.52
2023-05-23T21:57:55.780Z,13.54
2023-05-23T22:00:27.542Z,13.49
2023-05-23T22:02:58.212Z,13.54
2023-05-23T22:05:31.829Z,13.46
2023-05-23T22:08:02.352Z,13.40
2023-05-23T22:10:35.014Z,13.37
2023-05-23T22:13:06.098Z,13.32
2023-05-23T22:15:37.024Z,13.26
2023-05-23T22:18:08.035Z,13.17
2023-05-23T22:20:41.381Z,13.17
2023-05-23T22:23:16.975Z,13.04
2023-05-23T22:25:48.273Z,13.08
2023-05-23T22:28:18.921Z,13.10
2023-05-23T22:30:49.612Z,13.15
2023-05-23T22:33:20.398Z,13.08
2023-05-23T22:35:53.725Z,13.00
2023-05-23T22:38:24.376Z,12.87
2023-05-23T22:40:54.965Z,12.91
2023-05-23T22:43:25.784Z,12.87
2023-05-23T22:45:56.363Z,12.79
2023-05-23T22:48:28.431Z,12.82
2023-05-23T22:51:02.992Z,12.79
2023-05-23T22:53:33.890Z,12.75
2023-05-23T22:56:04.568Z,12.73
2023-05-23T22:58:35.148Z,12.73
2023-05-23T23:01:05.852Z,12.83
2023-05-23T23:03:36.568Z,12.94
2023-05-23T23:06:10.191Z,13.01
2023-05-23T23:08:40.967Z,13.02
2023-05-23T23:11:11.562Z,13.01
2023-05-23T23:13:42.193Z,12.97
2023-05-23T23:16:13.369Z,12.95
2023-05-23T23:18:44.098Z,13.03
2023-05-23T23:21:17.400Z,12.96
2023-05-23T23:23:48.083Z,12.96
2023-05-23T23:26:18.745Z,12.93
2023-05-23T23:28:49.441Z,12.93
2023-05-23T23:31:20.133Z,12.89
2023-05-23T23:33:50.818Z,12.96
2023-05-23T23:36:24.358Z,12.87
2023-05-23T23:38:54.952Z,12.91
2023-05-23T23:41:27.040Z,12.80
2023-05-23T23:43:57.609Z,12.88
2023-05-23T23:46:28.273Z,12.87
2023-05-23T23:48:58.869Z,12.87
2023-05-23T23:51:32.821Z,12.96
2023-05-23T23:54:03.640Z,12.92
2023-05-23T23:56:34.198Z,12.90
2023-05-23T23:59:04.894Z,12.96
